sensor_id;sensor_type;location;lat;lon;timestamp;P1;durP1;ratioP1;P2;durP2;ratioP2
64791;SDS011;51226;47.504;19.074;2023-03-01T00:02:18;26.58;;;17.10;;
64791;SDS011;51226;47.504;19.074;2023-03-01T00:08:25;24.12;;;16.87;;
64791;SDS011;51226;47.504;19.074;2023-03-01T00:11:29;25.20;;;17.62;;
64791;SDS011;51226;47.504;19.074;2023-03-01T00:14:34;27.83;;;18.52;;
64791;SDS011;51226;47.504;19.074;2023-03-01T00:17:38;26.42;;;17.95;;
64791;SDS011;51226;47.504;19.074;2023-03-01T00:20:41;22.75;;;17.15;;
64791;SDS011;51226;47.504;19.074;2023-03-01T00:23:44;26.95;;;19.02;;
64791;SDS011;51226;47.504;19.074;2023-03-01T00:26:46;25.57;;;19.10;;
64791;SDS011;51226;47.504;19.074;2023-03-01T00:29:49;25.98;;;17.48;;
64791;SDS011;51226;47.504;19.074;2023-03-01T00:32:52;25.03;;;19.03;;
64791;SDS011;51226;47.504;19.074;2023-03-01T00:35:57;28.60;;;19.12;;
64791;SDS011;51226;47.504;19.074;2023-03-01T00:39:00;26.65;;;17.70;;
64791;SDS011;51226;47.504;19.074;2023-03-01T00:42:05;26.52;;;17.12;;
64791;SDS011;51226;47.504;19.074;2023-03-01T00:45:09;25.73;;;17.05;;
64791;SDS011;51226;47.504;19.074;2023-03-01T00:51:25;26.00;;;17.30;;
64791;SDS011;51226;47.504;19.074;2023-03-01T00:54:31;23.35;;;16.08;;
64791;SDS011;51226;47.504;19.074;2023-03-01T00:57:33;23.83;;;16.63;;
64791;SDS011;51226;47.504;19.074;2023-03-01T01:00:37;22.73;;;15.60;;
64791;SDS011;51226;47.504;19.074;2023-03-01T01:03:39;21.65;;;15.32;;
64791;SDS011;51226;47.504;19.074;2023-03-01T01:06:44;22.48;;;16.20;;
64791;SDS011;51226;47.504;19.074;2023-03-01T01:09:47;23.52;;;16.00;;
64791;SDS011;51226;47.504;19.074;2023-03-01T01:12:51;24.77;;;15.73;;
64791;SDS011;51226;47.504;19.074;2023-03-01T01:15:54;23.27;;;15.63;;
64791;SDS011;51226;47.504;19.074;2023-03-01T01:19:03;19.95;;;16.87;;
64791;SDS011;51226;47.504;19.074;2023-03-01T01:22:06;18.98;;;14.23;;
64791;SDS011;51226;47.504;19.074;2023-03-01T01:25:09;21.05;;;15.60;;
64791;SDS011;51226;47.504;19.074;2023-03-01T01:31:16;21.63;;;15.20;;
64791;SDS011;51226;47.504;19.074;2023-03-01T01:34:19;23.00;;;15.98;;
64791;SDS011;51226;47.504;19.074;2023-03-01T01:37:24;24.20;;;15.90;;
64791;SDS011;51226;47.504;19.074;2023-03-01T01:40:33;20.65;;;14.38;;
64791;SDS011;51226;47.504;19.074;2023-03-01T01:43:37;22.10;;;13.27;;
64791;SDS011;51226;47.504;19.074;2023-03-01T01:46:44;19.50;;;13.25;;
64791;SDS011;51226;47.504;19.074;2023-03-01T01:49:54;18.65;;;13.00;;
64791;SDS011;51226;47.504;19.074;2023-03-01T01:52:59;18.75;;;13.98;;
64791;SDS011;51226;47.504;19.074;2023-03-01T01:56:02;16.08;;;13.15;;
64791;SDS011;51226;47.504;19.074;2023-03-01T01:59:08;17.17;;;13.18;;
64791;SDS011;51226;47.504;19.074;2023-03-01T02:02:12;19.15;;;13.95;;
64791;SDS011;51226;47.504;19.074;2023-03-01T02:05:28;17.80;;;12.18;;
64791;SDS011;51226;47.504;19.074;2023-03-01T02:08:35;15.65;;;12.85;;
64791;SDS011;51226;47.504;19.074;2023-03-01T02:11:40;19.40;;;13.30;;
64791;SDS011;51226;47.504;19.074;2023-03-01T02:14:45;18.08;;;12.80;;
64791;SDS011;51226;47.504;19.074;2023-03-01T02:17:49;21.17;;;13.45;;
64791;SDS011;51226;47.504;19.074;2023-03-01T02:24:10;17.70;;;12.52;;
64791;SDS011;51226;47.504;19.074;2023-03-01T02:27:55;18.02;;;13.10;;
64791;SDS011;51226;47.504;19.074;2023-03-01T02:30:54;18.42;;;11.80;;
64791;SDS011;51226;47.504;19.074;2023-03-01T02:34:16;18.05;;;12.07;;
64791;SDS011;51226;47.504;19.074;2023-03-01T02:37:22;17.40;;;12.45;;
64791;SDS011;51226;47.504;19.074;2023-03-01T02:40:28;17.45;;;12.13;;
64791;SDS011;51226;47.504;19.074;2023-03-01T02:43:33;14.63;;;11.27;;
64791;SDS011;51226;47.504;19.074;2023-03-01T02:46:43;16.60;;;11.25;;
64791;SDS011;51226;47.504;19.074;2023-03-01T02:49:50;15.13;;;10.98;;
64791;SDS011;51226;47.504;19.074;2023-03-01T02:56:02;16.10;;;12.57;;
64791;SDS011;51226;47.504;19.074;2023-03-01T02:59:06;16.77;;;11.98;;
64791;SDS011;51226;47.504;19.074;2023-03-01T03:02:19;15.30;;;12.07;;
64791;SDS011;51226;47.504;19.074;2023-03-01T03:05:38;17.45;;;12.60;;
64791;SDS011;51226;47.504;19.074;2023-03-01T03:08:41;16.40;;;11.95;;
64791;SDS011;51226;47.504;19.074;2023-03-01T03:11:44;15.25;;;11.75;;
64791;SDS011;51226;47.504;19.074;2023-03-01T03:14:48;16.17;;;11.52;;
64791;SDS011;51226;47.504;19.074;2023-03-01T03:17:51;17.17;;;12.75;;
64791;SDS011;51226;47.504;19.074;2023-03-01T03:20:55;15.32;;;11.75;;
64791;SDS011;51226;47.504;19.074;2023-03-01T03:23:58;17.40;;;12.23;;
64791;SDS011;51226;47.504;19.074;2023-03-01T03:30:05;16.15;;;11.38;;
64791;SDS011;51226;47.504;19.074;2023-03-01T03:33:14;15.82;;;12.55;;
64791;SDS011;51226;47.504;19.074;2023-03-01T03:36:18;15.32;;;11.75;;
64791;SDS011;51226;47.504;19.074;2023-03-01T03:39:23;19.77;;;12.35;;
64791;SDS011;51226;47.504;19.074;2023-03-01T03:42:26;16.17;;;12.02;;
64791;SDS011;51226;47.504;19.074;2023-03-01T03:45:29;18.80;;;12.68;;
64791;SDS011;51226;47.504;19.074;2023-03-01T03:48:36;19.15;;;13.60;;
64791;SDS011;51226;47.504;19.074;2023-03-01T03:51:41;17.37;;;13.60;;
64791;SDS011;51226;47.504;19.074;2023-03-01T03:54:44;19.37;;;13.27;;
64791;SDS011;51226;47.504;19.074;2023-03-01T03:57:47;20.08;;;13.38;;
64791;SDS011;51226;47.504;19.074;2023-03-01T04:00:55;21.62;;;13.88;;
64791;SDS011;51226;47.504;19.074;2023-03-01T04:03:59;16.12;;;12.50;;
64791;SDS011;51226;47.504;19.074;2023-03-01T04:07:06;17.45;;;13.23;;
64791;SDS011;51226;47.504;19.074;2023-03-01T04:10:10;17.87;;;12.48;;
64791;SDS011;51226;47.504;19.074;2023-03-01T04:13:16;16.05;;;12.23;;
64791;SDS011;51226;47.504;19.074;2023-03-01T04:16:24;18.80;;;12.18;;
64791;SDS011;51226;47.504;19.074;2023-03-01T04:19:28;20.10;;;13.35;;
64791;SDS011;51226;47.504;19.074;2023-03-01T04:22:30;18.08;;;12.95;;
64791;SDS011;51226;47.504;19.074;2023-03-01T04:25:34;16.65;;;13.20;;
64791;SDS011;51226;47.504;19.074;2023-03-01T04:28:38;19.12;;;14.13;;
64791;SDS011;51226;47.504;19.074;2023-03-01T04:31:45;17.85;;;12.90;;
64791;SDS011;51226;47.504;19.074;2023-03-01T04:34:48;20.62;;;13.77;;
64791;SDS011;51226;47.504;19.074;2023-03-01T04:37:51;14.87;;;12.30;;
64791;SDS011;51226;47.504;19.074;2023-03-01T04:40:53;17.92;;;13.43;;
64791;SDS011;51226;47.504;19.074;2023-03-01T04:43:56;22.00;;;15.57;;
64791;SDS011;51226;47.504;19.074;2023-03-01T04:47:02;20.42;;;13.68;;
64791;SDS011;51226;47.504;19.074;2023-03-01T04:50:05;18.35;;;13.70;;
64791;SDS011;51226;47.504;19.074;2023-03-01T04:53:09;18.33;;;12.80;;
64791;SDS011;51226;47.504;19.074;2023-03-01T04:56:12;16.87;;;12.90;;
64791;SDS011;51226;47.504;19.074;2023-03-01T04:59:16;17.42;;;13.15;;
64791;SDS011;51226;47.504;19.074;2023-03-01T05:02:19;20.33;;;12.70;;
64791;SDS011;51226;47.504;19.074;2023-03-01T05:05:23;19.25;;;13.35;;
64791;SDS011;51226;47.504;19.074;2023-03-01T05:08:28;21.90;;;13.52;;
64791;SDS011;51226;47.504;19.074;2023-03-01T05:11:31;18.55;;;12.93;;
64791;SDS011;51226;47.504;19.074;2023-03-01T05:14:38;19.20;;;13.27;;
64791;SDS011;51226;47.504;19.074;2023-03-01T05:17:41;20.62;;;13.77;;
64791;SDS011;51226;47.504;19.074;2023-03-01T05:20:44;21.15;;;12.98;;
64791;SDS011;51226;47.504;19.074;2023-03-01T05:23:47;36.13;;;24.15;;
64791;SDS011;51226;47.504;19.074;2023-03-01T05:26:50;21.35;;;14.23;;
64791;SDS011;51226;47.504;19.074;2023-03-01T05:29:56;27.17;;;13.27;;
64791;SDS011;51226;47.504;19.074;2023-03-01T05:32:59;19.08;;;12.88;;
64791;SDS011;51226;47.504;19.074;2023-03-01T05:36:02;19.75;;;13.48;;
64791;SDS011;51226;47.504;19.074;2023-03-01T05:39:06;21.12;;;13.20;;
64791;SDS011;51226;47.504;19.074;2023-03-01T05:42:10;17.75;;;12.85;;
64791;SDS011;51226;47.504;19.074;2023-03-01T05:45:13;19.25;;;13.60;;
64791;SDS011;51226;47.504;19.074;2023-03-01T05:48:17;20.80;;;14.32;;
64791;SDS011;51226;47.504;19.074;2023-03-01T05:51:22;20.75;;;13.68;;
64791;SDS011;51226;47.504;19.074;2023-03-01T05:54:24;18.85;;;13.15;;
64791;SDS011;51226;47.504;19.074;2023-03-01T05:57:28;18.20;;;12.85;;
64791;SDS011;51226;47.504;19.074;2023-03-01T06:00:31;21.52;;;14.00;;
64791;SDS011;51226;47.504;19.074;2023-03-01T06:03:35;19.98;;;13.43;;
64791;SDS011;51226;47.504;19.074;2023-03-01T06:06:38;19.00;;;13.40;;
64791;SDS011;51226;47.504;19.074;2023-03-01T06:09:41;21.00;;;14.40;;
64791;SDS011;51226;47.504;19.074;2023-03-01T06:12:43;18.37;;;14.33;;
64791;SDS011;51226;47.504;19.074;2023-03-01T06:15:47;19.12;;;13.77;;
64791;SDS011;51226;47.504;19.074;2023-03-01T06:18:50;18.87;;;14.07;;
64791;SDS011;51226;47.504;19.074;2023-03-01T06:21:53;19.55;;;13.77;;
64791;SDS011;51226;47.504;19.074;2023-03-01T06:24:55;19.50;;;14.40;;
64791;SDS011;51226;47.504;19.074;2023-03-01T06:27:58;19.15;;;14.40;;
64791;SDS011;51226;47.504;19.074;2023-03-01T06:31:01;20.47;;;13.83;;
64791;SDS011;51226;47.504;19.074;2023-03-01T06:34:05;19.87;;;14.38;;
64791;SDS011;51226;47.504;19.074;2023-03-01T06:37:07;17.48;;;12.77;;
64791;SDS011;51226;47.504;19.074;2023-03-01T06:40:11;20.08;;;14.38;;
64791;SDS011;51226;47.504;19.074;2023-03-01T06:43:15;19.30;;;13.82;;
64791;SDS011;51226;47.504;19.074;2023-03-01T06:46:18;16.92;;;13.32;;
64791;SDS011;51226;47.504;19.074;2023-03-01T06:49:21;18.57;;;12.83;;
64791;SDS011;51226;47.504;19.074;2023-03-01T06:52:24;20.48;;;14.13;;
64791;SDS011;51226;47.504;19.074;2023-03-01T06:55:27;18.37;;;13.50;;
64791;SDS011;51226;47.504;19.074;2023-03-01T07:01:33;20.60;;;14.00;;
64791;SDS011;51226;47.504;19.074;2023-03-01T07:04:37;22.10;;;14.32;;
64791;SDS011;51226;47.504;19.074;2023-03-01T07:07:40;18.87;;;13.18;;
64791;SDS011;51226;47.504;19.074;2023-03-01T07:10:43;18.37;;;13.55;;
64791;SDS011;51226;47.504;19.074;2023-03-01T07:13:46;19.50;;;13.32;;
64791;SDS011;51226;47.504;19.074;2023-03-01T07:16:49;20.80;;;13.40;;
64791;SDS011;51226;47.504;19.074;2023-03-01T07:19:52;17.23;;;12.55;;
64791;SDS011;51226;47.504;19.074;2023-03-01T07:22:55;16.23;;;12.40;;
64791;SDS011;51226;47.504;19.074;2023-03-01T07:26:00;16.20;;;11.32;;
64791;SDS011;51226;47.504;19.074;2023-03-01T07:29:04;16.77;;;11.73;;
64791;SDS011;51226;47.504;19.074;2023-03-01T07:32:09;16.42;;;10.77;;
64791;SDS011;51226;47.504;19.074;2023-03-01T07:35:12;15.98;;;11.50;;
64791;SDS011;51226;47.504;19.074;2023-03-01T07:38:16;16.52;;;11.57;;
64791;SDS011;51226;47.504;19.074;2023-03-01T07:41:20;17.70;;;11.25;;
64791;SDS011;51226;47.504;19.074;2023-03-01T07:44:22;16.20;;;12.07;;
64791;SDS011;51226;47.504;19.074;2023-03-01T07:47:25;18.60;;;12.37;;
64791;SDS011;51226;47.504;19.074;2023-03-01T07:50:28;19.77;;;13.23;;
64791;SDS011;51226;47.504;19.074;2023-03-01T07:53:31;18.27;;;13.90;;
64791;SDS011;51226;47.504;19.074;2023-03-01T07:56:36;20.17;;;13.73;;
64791;SDS011;51226;47.504;19.074;2023-03-01T08:02:41;19.33;;;13.18;;
64791;SDS011;51226;47.504;19.074;2023-03-01T08:05:45;18.77;;;12.80;;
64791;SDS011;51226;47.504;19.074;2023-03-01T08:08:47;17.03;;;13.47;;
64791;SDS011;51226;47.504;19.074;2023-03-01T08:11:50;16.98;;;12.68;;
64791;SDS011;51226;47.504;19.074;2023-03-01T08:14:53;17.12;;;12.90;;
64791;SDS011;51226;47.504;19.074;2023-03-01T08:17:57;17.30;;;12.57;;
64791;SDS011;51226;47.504;19.074;2023-03-01T08:21:06;19.10;;;14.13;;
64791;SDS011;51226;47.504;19.074;2023-03-01T08:24:11;17.45;;;13.32;;
64791;SDS011;51226;47.504;19.074;2023-03-01T08:27:14;16.00;;;12.65;;
64791;SDS011;51226;47.504;19.074;2023-03-01T08:30:18;18.42;;;13.88;;
64791;SDS011;51226;47.504;19.074;2023-03-01T08:33:22;19.75;;;13.13;;
64791;SDS011;51226;47.504;19.074;2023-03-01T08:36:27;19.60;;;13.05;;
64791;SDS011;51226;47.504;19.074;2023-03-01T08:39:32;16.70;;;13.65;;
64791;SDS011;51226;47.504;19.074;2023-03-01T08:42:36;17.80;;;12.07;;
64791;SDS011;51226;47.504;19.074;2023-03-01T08:45:39;16.65;;;12.75;;
64791;SDS011;51226;47.504;19.074;2023-03-01T08:51:45;15.70;;;12.23;;
64791;SDS011;51226;47.504;19.074;2023-03-01T08:54:49;15.93;;;13.13;;
64791;SDS011;51226;47.504;19.074;2023-03-01T08:57:52;16.10;;;12.70;;
64791;SDS011;51226;47.504;19.074;2023-03-01T09:00:55;15.80;;;12.43;;
64791;SDS011;51226;47.504;19.074;2023-03-01T09:04:00;14.65;;;11.60;;
64791;SDS011;51226;47.504;19.074;2023-03-01T09:10:06;14.85;;;12.00;;
64791;SDS011;51226;47.504;19.074;2023-03-01T09:13:09;14.32;;;12.02;;
64791;SDS011;51226;47.504;19.074;2023-03-01T09:16:13;15.23;;;12.88;;
64791;SDS011;51226;47.504;19.074;2023-03-01T09:19:21;15.93;;;12.57;;
64791;SDS011;51226;47.504;19.074;2023-03-01T09:22:26;13.55;;;12.13;;
64791;SDS011;51226;47.504;19.074;2023-03-01T09:28:32;15.23;;;13.60;;
64791;SDS011;51226;47.504;19.074;2023-03-01T09:34:37;13.35;;;11.73;;
64791;SDS011;51226;47.504;19.074;2023-03-01T09:38:00;16.42;;;13.05;;
64791;SDS011;51226;47.504;19.074;2023-03-01T09:41:08;16.05;;;12.43;;
64791;SDS011;51226;47.504;19.074;2023-03-01T09:47:40;14.73;;;12.75;;
64791;SDS011;51226;47.504;19.074;2023-03-01T09:50:44;16.42;;;12.82;;
64791;SDS011;51226;47.504;19.074;2023-03-01T09:53:50;15.75;;;11.77;;
64791;SDS011;51226;47.504;19.074;2023-03-01T10:00:12;14.60;;;11.88;;
64791;SDS011;51226;47.504;19.074;2023-03-01T10:10:23;14.68;;;12.13;;
64791;SDS011;51226;47.504;19.074;2023-03-01T10:13:37;13.05;;;11.75;;
64791;SDS011;51226;47.504;19.074;2023-03-01T10:16:57;13.50;;;11.85;;
64791;SDS011;51226;47.504;19.074;2023-03-01T10:20:18;16.10;;;12.10;;
64791;SDS011;51226;47.504;19.074;2023-03-01T10:23:25;13.27;;;11.95;;
64791;SDS011;51226;47.504;19.074;2023-03-01T10:26:37;15.13;;;12.48;;
64791;SDS011;51226;47.504;19.074;2023-03-01T10:30:21;14.30;;;12.80;;
64791;SDS011;51226;47.504;19.074;2023-03-01T10:33:35;13.85;;;11.85;;
64791;SDS011;51226;47.504;19.074;2023-03-01T10:36:47;15.68;;;12.00;;
64791;SDS011;51226;47.504;19.074;2023-03-01T10:39:59;13.13;;;11.45;;
64791;SDS011;51226;47.504;19.074;2023-03-01T10:43:12;16.08;;;12.80;;
64791;SDS011;51226;47.504;19.074;2023-03-01T10:49:35;12.93;;;11.05;;
64791;SDS011;51226;47.504;19.074;2023-03-01T10:52:40;13.27;;;10.93;;
64791;SDS011;51226;47.504;19.074;2023-03-01T10:55:44;15.00;;;10.77;;
64791;SDS011;51226;47.504;19.074;2023-03-01T10:58:58;12.35;;;10.23;;
64791;SDS011;51226;47.504;19.074;2023-03-01T11:08:26;13.52;;;10.40;;
64791;SDS011;51226;47.504;19.074;2023-03-01T11:11:35;13.88;;;10.88;;
64791;SDS011;51226;47.504;19.074;2023-03-01T11:14:39;10.85;;;9.80;;
64791;SDS011;51226;47.504;19.074;2023-03-01T11:17:52;14.35;;;10.75;;
64791;SDS011;51226;47.504;19.074;2023-03-01T11:21:10;11.63;;;9.80;;
64791;SDS011;51226;47.504;19.074;2023-03-01T11:24:14;10.55;;;9.45;;
64791;SDS011;51226;47.504;19.074;2023-03-01T11:27:28;10.57;;;9.48;;
64791;SDS011;51226;47.504;19.074;2023-03-01T11:30:38;10.57;;;9.45;;
64791;SDS011;51226;47.504;19.074;2023-03-01T11:40:44;12.23;;;11.03;;
64791;SDS011;51226;47.504;19.074;2023-03-01T11:44:00;14.45;;;12.18;;
64791;SDS011;51226;47.504;19.074;2023-03-01T11:50:38;14.02;;;12.35;;
64791;SDS011;51226;47.504;19.074;2023-03-01T11:57:11;12.77;;;11.48;;
64791;SDS011;51226;47.504;19.074;2023-03-01T12:00:48;12.48;;;11.18;;
64791;SDS011;51226;47.504;19.074;2023-03-01T12:17:37;12.73;;;11.38;;
64791;SDS011;51226;47.504;19.074;2023-03-01T12:30:31;14.00;;;10.68;;
64791;SDS011;51226;47.504;19.074;2023-03-01T12:37:48;13.93;;;10.98;;
64791;SDS011;51226;47.504;19.074;2023-03-01T12:50:58;12.60;;;9.55;;
64791;SDS011;51226;47.504;19.074;2023-03-01T12:54:11;11.02;;;9.40;;
64791;SDS011;51226;47.504;19.074;2023-03-01T12:57:21;10.68;;;9.57;;
64791;SDS011;51226;47.504;19.074;2023-03-01T13:00:58;13.52;;;9.35;;
64791;SDS011;51226;47.504;19.074;2023-03-01T13:13:32;8.35;;;7.05;;
64791;SDS011;51226;47.504;19.074;2023-03-01T13:16:39;8.52;;;7.40;;
64791;SDS011;51226;47.504;19.074;2023-03-01T13:19:57;7.10;;;6.12;;
64791;SDS011;51226;47.504;19.074;2023-03-01T13:23:03;16.23;;;13.30;;
64791;SDS011;51226;47.504;19.074;2023-03-01T13:26:21;8.13;;;6.53;;
64791;SDS011;51226;47.504;19.074;2023-03-01T13:29:25;8.02;;;6.20;;
64791;SDS011;51226;47.504;19.074;2023-03-01T13:32:30;8.65;;;6.35;;
64791;SDS011;51226;47.504;19.074;2023-03-01T13:35:46;7.50;;;6.40;;
64791;SDS011;51226;47.504;19.074;2023-03-01T13:38:56;9.48;;;5.90;;
64791;SDS011;51226;47.504;19.074;2023-03-01T13:42:25;6.80;;;5.35;;
64791;SDS011;51226;47.504;19.074;2023-03-01T13:48:41;7.28;;;5.78;;
64791;SDS011;51226;47.504;19.074;2023-03-01T13:51:47;8.77;;;5.85;;
64791;SDS011;51226;47.504;19.074;2023-03-01T13:54:51;7.72;;;5.45;;
64791;SDS011;51226;47.504;19.074;2023-03-01T13:57:59;6.43;;;5.57;;
64791;SDS011;51226;47.504;19.074;2023-03-01T14:01:07;7.62;;;5.72;;
64791;SDS011;51226;47.504;19.074;2023-03-01T14:04:24;5.87;;;5.37;;
64791;SDS011;51226;47.504;19.074;2023-03-01T14:07:29;7.72;;;5.68;;
64791;SDS011;51226;47.504;19.074;2023-03-01T14:10:36;7.95;;;6.00;;
64791;SDS011;51226;47.504;19.074;2023-03-01T14:16:57;6.70;;;5.97;;
64791;SDS011;51226;47.504;19.074;2023-03-01T14:23:26;6.07;;;5.30;;
64791;SDS011;51226;47.504;19.074;2023-03-01T14:29:35;5.93;;;5.07;;
64791;SDS011;51226;47.504;19.074;2023-03-01T14:32:39;6.10;;;5.40;;
64791;SDS011;51226;47.504;19.074;2023-03-01T14:35:42;7.75;;;5.60;;
64791;SDS011;51226;47.504;19.074;2023-03-01T14:38:58;7.32;;;5.15;;
64791;SDS011;51226;47.504;19.074;2023-03-01T14:42:07;7.60;;;5.35;;
64791;SDS011;51226;47.504;19.074;2023-03-01T14:45:16;8.13;;;5.65;;
64791;SDS011;51226;47.504;19.074;2023-03-01T14:48:20;7.28;;;5.45;;
64791;SDS011;51226;47.504;19.074;2023-03-01T14:54:39;5.47;;;4.62;;
64791;SDS011;51226;47.504;19.074;2023-03-01T14:57:44;6.60;;;5.87;;
64791;SDS011;51226;47.504;19.074;2023-03-01T15:00:51;6.75;;;5.28;;
64791;SDS011;51226;47.504;19.074;2023-03-01T15:03:57;6.85;;;5.28;;
64791;SDS011;51226;47.504;19.074;2023-03-01T15:07:00;5.93;;;5.18;;
64791;SDS011;51226;47.504;19.074;2023-03-01T15:10:12;6.72;;;5.35;;
64791;SDS011;51226;47.504;19.074;2023-03-01T15:13:23;11.12;;;4.85;;
64791;SDS011;51226;47.504;19.074;2023-03-01T15:16:29;8.93;;;5.60;;
64791;SDS011;51226;47.504;19.074;2023-03-01T15:19:34;6.78;;;5.65;;
64791;SDS011;51226;47.504;19.074;2023-03-01T15:22:37;6.22;;;5.07;;
64791;SDS011;51226;47.504;19.074;2023-03-01T15:25:43;6.82;;;5.12;;
64791;SDS011;51226;47.504;19.074;2023-03-01T15:28:49;6.55;;;4.85;;
64791;SDS011;51226;47.504;19.074;2023-03-01T15:32:01;5.45;;;4.87;;
64791;SDS011;51226;47.504;19.074;2023-03-01T15:38:51;9.43;;;5.18;;
64791;SDS011;51226;47.504;19.074;2023-03-01T15:41:56;5.97;;;5.15;;
64791;SDS011;51226;47.504;19.074;2023-03-01T15:48:15;7.28;;;5.15;;
64791;SDS011;51226;47.504;19.074;2023-03-01T15:51:33;8.48;;;5.20;;
64791;SDS011;51226;47.504;19.074;2023-03-01T15:54:38;10.50;;;6.32;;
64791;SDS011;51226;47.504;19.074;2023-03-01T15:57:43;9.38;;;6.45;;
64791;SDS011;51226;47.504;19.074;2023-03-01T16:00:46;8.57;;;6.20;;
64791;SDS011;51226;47.504;19.074;2023-03-01T16:04:02;8.23;;;5.57;;
64791;SDS011;51226;47.504;19.074;2023-03-01T16:07:05;9.68;;;5.90;;
64791;SDS011;51226;47.504;19.074;2023-03-01T16:10:09;9.85;;;5.97;;
64791;SDS011;51226;47.504;19.074;2023-03-01T16:13:12;7.50;;;5.47;;
64791;SDS011;51226;47.504;19.074;2023-03-01T16:16:16;6.93;;;5.32;;
64791;SDS011;51226;47.504;19.074;2023-03-01T16:22:22;7.20;;;5.90;;
64791;SDS011;51226;47.504;19.074;2023-03-01T16:25:27;8.40;;;5.78;;
64791;SDS011;51226;47.504;19.074;2023-03-01T16:28:31;10.45;;;5.80;;
64791;SDS011;51226;47.504;19.074;2023-03-01T16:31:34;9.43;;;6.10;;
64791;SDS011;51226;47.504;19.074;2023-03-01T16:34:37;8.07;;;5.93;;
64791;SDS011;51226;47.504;19.074;2023-03-01T16:37:40;13.15;;;6.47;;
64791;SDS011;51226;47.504;19.074;2023-03-01T16:40:49;8.55;;;5.82;;
64791;SDS011;51226;47.504;19.074;2023-03-01T16:43:52;8.20;;;6.07;;
64791;SDS011;51226;47.504;19.074;2023-03-01T16:46:55;8.27;;;5.93;;
64791;SDS011;51226;47.504;19.074;2023-03-01T16:49:58;8.10;;;6.10;;
64791;SDS011;51226;47.504;19.074;2023-03-01T16:53:01;9.77;;;6.72;;
64791;SDS011;51226;47.504;19.074;2023-03-01T16:56:06;9.43;;;6.57;;
64791;SDS011;51226;47.504;19.074;2023-03-01T16:59:11;9.18;;;6.32;;
64791;SDS011;51226;47.504;19.074;2023-03-01T17:02:14;11.07;;;6.93;;
64791;SDS011;51226;47.504;19.074;2023-03-01T17:05:22;9.95;;;5.82;;
64791;SDS011;51226;47.504;19.074;2023-03-01T17:08:26;11.73;;;6.62;;
64791;SDS011;51226;47.504;19.074;2023-03-01T17:11:29;8.43;;;5.70;;
64791;SDS011;51226;47.504;19.074;2023-03-01T17:14:32;8.25;;;6.97;;
64791;SDS011;51226;47.504;19.074;2023-03-01T17:17:36;8.05;;;6.40;;
64791;SDS011;51226;47.504;19.074;2023-03-01T17:20:38;11.37;;;6.70;;
64791;SDS011;51226;47.504;19.074;2023-03-01T17:23:42;9.57;;;6.43;;
64791;SDS011;51226;47.504;19.074;2023-03-01T17:26:46;10.27;;;7.00;;
64791;SDS011;51226;47.504;19.074;2023-03-01T17:29:49;11.75;;;6.93;;
64791;SDS011;51226;47.504;19.074;2023-03-01T17:32:52;11.50;;;6.77;;
64791;SDS011;51226;47.504;19.074;2023-03-01T17:35:57;14.25;;;6.65;;
64791;SDS011;51226;47.504;19.074;2023-03-01T17:39:01;10.73;;;7.00;;
64791;SDS011;51226;47.504;19.074;2023-03-01T17:42:04;8.40;;;6.55;;
64791;SDS011;51226;47.504;19.074;2023-03-01T17:45:07;11.32;;;6.78;;
64791;SDS011;51226;47.504;19.074;2023-03-01T17:48:11;10.80;;;6.93;;
64791;SDS011;51226;47.504;19.074;2023-03-01T17:51:13;13.97;;;7.23;;
64791;SDS011;51226;47.504;19.074;2023-03-01T17:54:16;11.82;;;7.72;;
64791;SDS011;51226;47.504;19.074;2023-03-01T17:57:19;14.05;;;7.50;;
64791;SDS011;51226;47.504;19.074;2023-03-01T18:00:22;14.18;;;8.30;;
64791;SDS011;51226;47.504;19.074;2023-03-01T18:03:25;13.30;;;8.35;;
64791;SDS011;51226;47.504;19.074;2023-03-01T18:06:28;12.65;;;8.98;;
64791;SDS011;51226;47.504;19.074;2023-03-01T18:09:32;12.63;;;7.70;;
64791;SDS011;51226;47.504;19.074;2023-03-01T18:12:34;14.18;;;8.43;;
64791;SDS011;51226;47.504;19.074;2023-03-01T18:15:37;16.08;;;8.70;;
64791;SDS011;51226;47.504;19.074;2023-03-01T18:18:41;12.55;;;9.18;;
64791;SDS011;51226;47.504;19.074;2023-03-01T18:21:44;14.13;;;9.02;;
64791;SDS011;51226;47.504;19.074;2023-03-01T18:24:47;14.35;;;8.75;;
64791;SDS011;51226;47.504;19.074;2023-03-01T18:27:50;12.33;;;8.47;;
64791;SDS011;51226;47.504;19.074;2023-03-01T18:30:56;16.12;;;10.73;;
64791;SDS011;51226;47.504;19.074;2023-03-01T18:34:01;15.40;;;10.57;;
64791;SDS011;51226;47.504;19.074;2023-03-01T18:37:04;15.68;;;10.35;;
64791;SDS011;51226;47.504;19.074;2023-03-01T18:40:11;15.18;;;10.55;;
64791;SDS011;51226;47.504;19.074;2023-03-01T18:43:15;14.98;;;10.18;;
64791;SDS011;51226;47.504;19.074;2023-03-01T18:46:18;14.45;;;10.30;;
64791;SDS011;51226;47.504;19.074;2023-03-01T18:49:21;15.38;;;10.60;;
64791;SDS011;51226;47.504;19.074;2023-03-01T18:52:24;18.50;;;11.02;;
64791;SDS011;51226;47.504;19.074;2023-03-01T18:55:27;17.75;;;11.02;;
64791;SDS011;51226;47.504;19.074;2023-03-01T18:58:30;16.65;;;11.23;;
64791;SDS011;51226;47.504;19.074;2023-03-01T19:01:33;16.27;;;11.52;;
64791;SDS011;51226;47.504;19.074;2023-03-01T19:04:39;35.90;;;19.12;;
64791;SDS011;51226;47.504;19.074;2023-03-01T19:07:43;35.88;;;19.83;;
64791;SDS011;51226;47.504;19.074;2023-03-01T19:10:46;24.30;;;13.95;;
64791;SDS011;51226;47.504;19.074;2023-03-01T19:13:48;18.30;;;11.63;;
64791;SDS011;51226;47.504;19.074;2023-03-01T19:16:53;18.27;;;11.52;;
64791;SDS011;51226;47.504;19.074;2023-03-01T19:19:56;20.25;;;12.32;;
64791;SDS011;51226;47.504;19.074;2023-03-01T19:22:59;17.27;;;11.75;;
64791;SDS011;51226;47.504;19.074;2023-03-01T19:26:04;32.40;;;20.67;;
64791;SDS011;51226;47.504;19.074;2023-03-01T19:29:08;22.23;;;15.50;;
64791;SDS011;51226;47.504;19.074;2023-03-01T19:32:12;20.52;;;13.43;;
64791;SDS011;51226;47.504;19.074;2023-03-01T19:35:15;21.25;;;14.25;;
64791;SDS011;51226;47.504;19.074;2023-03-01T19:38:18;18.87;;;13.50;;
64791;SDS011;51226;47.504;19.074;2023-03-01T19:41:21;21.10;;;13.65;;
64791;SDS011;51226;47.504;19.074;2023-03-01T19:44:24;21.37;;;13.93;;
64791;SDS011;51226;47.504;19.074;2023-03-01T19:47:27;20.80;;;15.05;;
64791;SDS011;51226;47.504;19.074;2023-03-01T19:50:30;23.33;;;15.23;;
64791;SDS011;51226;47.504;19.074;2023-03-01T19:53:33;21.98;;;15.60;;
64791;SDS011;51226;47.504;19.074;2023-03-01T19:56:37;21.48;;;14.55;;
64791;SDS011;51226;47.504;19.074;2023-03-01T19:59:40;22.40;;;15.68;;
64791;SDS011;51226;47.504;19.074;2023-03-01T20:02:43;20.37;;;15.02;;
64791;SDS011;51226;47.504;19.074;2023-03-01T20:05:46;22.05;;;14.55;;
64791;SDS011;51226;47.504;19.074;2023-03-01T20:08:49;22.80;;;15.45;;
64791;SDS011;51226;47.504;19.074;2023-03-01T20:11:52;22.48;;;15.05;;
64791;SDS011;51226;47.504;19.074;2023-03-01T20:14:55;20.73;;;14.43;;
64791;SDS011;51226;47.504;19.074;2023-03-01T20:17:58;25.83;;;15.25;;
64791;SDS011;51226;47.504;19.074;2023-03-01T20:21:01;20.80;;;15.75;;
64791;SDS011;51226;47.504;19.074;2023-03-01T20:24:08;24.58;;;16.58;;
64791;SDS011;51226;47.504;19.074;2023-03-01T20:27:11;24.95;;;16.10;;